createdAt,value
2023-04-15T00:07:09.149Z,1009.2
2023-04-15T00:22:05.804Z,1009.2
2023-04-15T00:37:02.100Z,1009.2
2023-04-15T00:51:58.475Z,1009.3
2023-04-15T01:06:54.580Z,1009.3
2023-04-15T01:21:50.790Z,1009.3
2023-04-15T01:36:47.183Z,1009.4
2023-04-15T01:51:42.784Z,1009.3
2023-04-15T02:06:38.915Z,1009.2
2023-04-15T02:21:35.304Z,1009.3
2023-04-15T02:36:30.865Z,1009.4
2023-04-15T02:51:27.148Z,1009.5
2023-04-15T03:06:23.820Z,1009.5
2023-04-15T03:21:19.632Z,1009.5
2023-04-15T03:36:15.866Z,1009.6
2023-04-15T03:51:12.344Z,1009.7
2023-04-15T04:06:08.739Z,1009.7
2023-04-15T04:21:04.141Z,1009.7
2023-04-15T04:35:59.720Z,1009.9
2023-04-15T04:50:55.977Z,1010
2023-04-15T05:05:52.232Z,1010.1
2023-04-15T05:20:48.473Z,1010.1
2023-04-15T05:35:45.406Z,1010.2
2023-04-15T05:50:41.883Z,1010.4
2023-04-15T06:05:38.970Z,1010.5
2023-04-15T06:20:35.845Z,1010.5
2023-04-15T06:35:33.055Z,1010.5
2023-04-15T06:50:29.621Z,1010.5
2023-04-15T07:05:26.635Z,1010.5
2023-04-15T07:20:23.600Z,1010.6
2023-04-15T07:35:20.728Z,1010.6
2023-04-15T07:50:17.170Z,1010.7
2023-04-15T08:05:13.917Z,1010.8
2023-04-15T08:20:10.733Z,1010.8
2023-04-15T08:35:07.764Z,1010.8
2023-04-15T08:50:04.155Z,1010.9
2023-04-15T09:05:01.139Z,1011.1
2023-04-15T09:19:57.256Z,1011.3
2023-04-15T09:34:53.868Z,1011.5
2023-04-15T09:49:50.436Z,1011.6
2023-04-15T10:04:47.203Z,1011.5
2023-04-15T10:19:43.533Z,1011.5
2023-04-15T10:34:40.484Z,1011.4
2023-04-15T10:49:36.703Z,1011.5
2023-04-15T11:04:33.079Z,1011.6
2023-04-15T11:19:30.150Z,1011.7
2023-04-15T11:34:26.193Z,1011.9
2023-04-15T11:49:22.861Z,1012.3
2023-04-15T12:04:19.509Z,1012.6
2023-04-15T12:19:14.076Z,1012.8
2023-04-15T12:34:10.073Z,1013
2023-04-15T12:49:05.490Z,1013.4
2023-04-15T13:04:01.399Z,1013.7
2023-04-15T13:18:57.759Z,1013.7
2023-04-15T13:33:54.023Z,1014
2023-04-15T13:48:50.586Z,1014.2
2023-04-15T14:03:46.662Z,1014.4
2023-04-15T14:18:42.400Z,1014.6
2023-04-15T14:33:38.154Z,1014.7
2023-04-15T14:48:34.207Z,1014.9
2023-04-15T15:03:29.929Z,1015.2
2023-04-15T15:18:25.572Z,1015.4
2023-04-15T15:33:21.492Z,1015.5
2023-04-15T15:48:17.191Z,1015.8
2023-04-15T16:03:13.266Z,1016
2023-04-15T16:18:09.364Z,1016.2
2023-04-15T16:33:05.619Z,1016.4
2023-04-15T16:48:01.675Z,1016.6
2023-04-15T17:02:57.927Z,1016.7
2023-04-15T17:17:53.703Z,1017
2023-04-15T17:32:49.272Z,1017.1
2023-04-15T17:47:45.205Z,1017.3
2023-04-15T18:02:41.434Z,1017.6
2023-04-15T18:17:37.500Z,1017.7
2023-04-15T18:32:33.878Z,1017.9
2023-04-15T18:47:30.156Z,1018.2
2023-04-15T19:02:26.828Z,1018.6
2023-04-15T19:17:22.382Z,1018.8
2023-04-15T19:32:18.210Z,1019
2023-04-15T19:47:13.787Z,1019.1
2023-04-15T20:02:10.029Z,1019.3
2023-04-15T20:17:06.126Z,1019.4
2023-04-15T20:32:02.270Z,1019.5
2023-04-15T20:46:58.674Z,1019.6
2023-04-15T21:01:54.921Z,1019.8
2023-04-15T21:16:51.065Z,1019.8
2023-04-15T21:31:46.884Z,1019.9
2023-04-15T21:46:45.631Z,1020.1
2023-04-15T22:01:39.122Z,1020.3
2023-04-15T22:16:35.061Z,1020.4
2023-04-15T22:31:31.678Z,1020.5
2023-04-15T22:46:28.023Z,1020.6
2023-04-15T23:01:24.592Z,1020.8
2023-04-15T23:16:20.650Z,1020.9
2023-04-15T23:31:17.026Z,1020.9
2023-04-15T23:46:13.084Z,1020.9
